sensor_id;sensor_type;location;lat;lon;timestamp;P1;durP1;ratioP1;P2;durP2;ratioP2
12556;SDS011;6344;49.932;8.308;2023-04-29T00:01:33;5.43;;;5.13;;
12556;SDS011;6344;49.932;8.308;2023-04-29T00:04:00;5.23;;;4.87;;
12556;SDS011;6344;49.932;8.308;2023-04-29T00:06:26;4.87;;;4.57;;
12556;SDS011;6344;49.932;8.308;2023-04-29T00:08:53;4.87;;;4.57;;
12556;SDS011;6344;49.932;8.308;2023-04-29T00:11:20;5.37;;;4.97;;
12556;SDS011;6344;49.932;8.308;2023-04-29T00:13:46;5.30;;;5.00;;
12556;SDS011;6344;49.932;8.308;2023-04-29T00:16:13;4.60;;;4.40;;
12556;SDS011;6344;49.932;8.308;2023-04-29T00:18:41;5.73;;;5.40;;
12556;SDS011;6344;49.932;8.308;2023-04-29T00:21:07;4.83;;;4.53;;
12556;SDS011;6344;49.932;8.308;2023-04-29T00:23:34;5.30;;;4.80;;
12556;SDS011;6344;49.932;8.308;2023-04-29T00:26:01;5.53;;;5.13;;
12556;SDS011;6344;49.932;8.308;2023-04-29T00:28:28;7.23;;;4.93;;
12556;SDS011;6344;49.932;8.308;2023-04-29T00:30:54;5.47;;;5.07;;
12556;SDS011;6344;49.932;8.308;2023-04-29T00:33:21;5.60;;;5.20;;
12556;SDS011;6344;49.932;8.308;2023-04-29T00:35:49;5.80;;;5.33;;
12556;SDS011;6344;49.932;8.308;2023-04-29T00:38:16;5.87;;;5.47;;
12556;SDS011;6344;49.932;8.308;2023-04-29T00:40:43;5.80;;;5.40;;
12556;SDS011;6344;49.932;8.308;2023-04-29T00:43:10;6.67;;;6.17;;
12556;SDS011;6344;49.932;8.308;2023-04-29T00:45:37;6.40;;;6.00;;
12556;SDS011;6344;49.932;8.308;2023-04-29T00:48:03;6.50;;;6.10;;
12556;SDS011;6344;49.932;8.308;2023-04-29T00:50:30;7.10;;;6.10;;
12556;SDS011;6344;49.932;8.308;2023-04-29T00:52:58;6.20;;;5.80;;
12556;SDS011;6344;49.932;8.308;2023-04-29T00:55:25;6.87;;;6.37;;
12556;SDS011;6344;49.932;8.308;2023-04-29T00:57:53;6.37;;;5.87;;
12556;SDS011;6344;49.932;8.308;2023-04-29T01:00:20;6.70;;;6.20;;
12556;SDS011;6344;49.932;8.308;2023-04-29T01:02:46;7.27;;;6.67;;
12556;SDS011;6344;49.932;8.308;2023-04-29T01:05:14;6.20;;;5.80;;
12556;SDS011;6344;49.932;8.308;2023-04-29T01:07:43;7.40;;;6.70;;
12556;SDS011;6344;49.932;8.308;2023-04-29T01:10:21;6.20;;;5.80;;
12556;SDS011;6344;49.932;8.308;2023-04-29T01:12:53;7.47;;;6.77;;
12556;SDS011;6344;49.932;8.308;2023-04-29T01:15:29;8.00;;;7.30;;
12556;SDS011;6344;49.932;8.308;2023-04-29T01:18:03;7.33;;;6.83;;
12556;SDS011;6344;49.932;8.308;2023-04-29T01:20:31;6.33;;;5.93;;
12556;SDS011;6344;49.932;8.308;2023-04-29T01:22:59;6.70;;;6.20;;
12556;SDS011;6344;49.932;8.308;2023-04-29T01:25:27;6.43;;;6.03;;
12556;SDS011;6344;49.932;8.308;2023-04-29T01:27:56;8.10;;;5.37;;
12556;SDS011;6344;49.932;8.308;2023-04-29T01:30:35;5.13;;;4.83;;
12556;SDS011;6344;49.932;8.308;2023-04-29T01:33:09;5.73;;;5.10;;
12556;SDS011;6344;49.932;8.308;2023-04-29T01:35:50;5.23;;;4.90;;
12556;SDS011;6344;49.932;8.308;2023-04-29T01:38:26;4.87;;;4.47;;
12556;SDS011;6344;49.932;8.308;2023-04-29T01:41:01;4.53;;;4.23;;
12556;SDS011;6344;49.932;8.308;2023-04-29T01:43:36;5.57;;;4.77;;
12556;SDS011;6344;49.932;8.308;2023-04-29T01:46:03;4.80;;;4.40;;
12556;SDS011;6344;49.932;8.308;2023-04-29T01:48:34;4.33;;;4.13;;
12556;SDS011;6344;49.932;8.308;2023-04-29T01:51:01;6.60;;;4.80;;
12556;SDS011;6344;49.932;8.308;2023-04-29T01:53:29;4.00;;;3.70;;
12556;SDS011;6344;49.932;8.308;2023-04-29T01:55:56;4.10;;;3.70;;
12556;SDS011;6344;49.932;8.308;2023-04-29T01:58:24;4.03;;;3.83;;
12556;SDS011;6344;49.932;8.308;2023-04-29T02:00:52;3.77;;;3.47;;
12556;SDS011;6344;49.932;8.308;2023-04-29T02:03:18;3.87;;;3.67;;
12556;SDS011;6344;49.932;8.308;2023-04-29T02:05:45;3.97;;;3.77;;
12556;SDS011;6344;49.932;8.308;2023-04-29T02:08:14;4.17;;;3.93;;
12556;SDS011;6344;49.932;8.308;2023-04-29T02:10:41;4.30;;;4.00;;
12556;SDS011;6344;49.932;8.308;2023-04-29T02:13:07;3.77;;;3.57;;
12556;SDS011;6344;49.932;8.308;2023-04-29T02:15:37;3.20;;;3.00;;
12556;SDS011;6344;49.932;8.308;2023-04-29T02:18:03;4.57;;;3.27;;
12556;SDS011;6344;49.932;8.308;2023-04-29T02:20:30;4.03;;;3.73;;
12556;SDS011;6344;49.932;8.308;2023-04-29T02:22:57;3.60;;;3.30;;
12556;SDS011;6344;49.932;8.308;2023-04-29T02:25:23;3.90;;;3.50;;
12556;SDS011;6344;49.932;8.308;2023-04-29T02:27:50;3.93;;;3.63;;
12556;SDS011;6344;49.932;8.308;2023-04-29T02:30:17;3.40;;;3.20;;
12556;SDS011;6344;49.932;8.308;2023-04-29T02:32:45;4.00;;;3.70;;
12556;SDS011;6344;49.932;8.308;2023-04-29T02:35:11;3.57;;;3.37;;
12556;SDS011;6344;49.932;8.308;2023-04-29T02:37:38;3.57;;;3.27;;
12556;SDS011;6344;49.932;8.308;2023-04-29T02:40:05;3.90;;;3.60;;
12556;SDS011;6344;49.932;8.308;2023-04-29T02:42:32;3.80;;;3.60;;
12556;SDS011;6344;49.932;8.308;2023-04-29T02:44:59;2.77;;;2.67;;
12556;SDS011;6344;49.932;8.308;2023-04-29T02:47:26;3.53;;;3.33;;
12556;SDS011;6344;49.932;8.308;2023-04-29T02:49:54;4.90;;;3.47;;
12556;SDS011;6344;49.932;8.308;2023-04-29T02:52:20;3.67;;;3.47;;
12556;SDS011;6344;49.932;8.308;2023-04-29T02:54:47;3.40;;;3.20;;
12556;SDS011;6344;49.932;8.308;2023-04-29T02:57:13;4.83;;;3.70;;
12556;SDS011;6344;49.932;8.308;2023-04-29T02:59:40;3.67;;;3.37;;
12556;SDS011;6344;49.932;8.308;2023-04-29T03:02:07;3.43;;;3.23;;
12556;SDS011;6344;49.932;8.308;2023-04-29T03:04:33;3.40;;;3.20;;
12556;SDS011;6344;49.932;8.308;2023-04-29T03:07:01;6.70;;;3.13;;
12556;SDS011;6344;49.932;8.308;2023-04-29T03:09:28;3.53;;;3.33;;
12556;SDS011;6344;49.932;8.308;2023-04-29T03:11:55;3.50;;;3.30;;
12556;SDS011;6344;49.932;8.308;2023-04-29T03:14:22;5.40;;;3.80;;
12556;SDS011;6344;49.932;8.308;2023-04-29T03:16:49;3.70;;;3.50;;
12556;SDS011;6344;49.932;8.308;2023-04-29T03:19:16;3.90;;;3.67;;
12556;SDS011;6344;49.932;8.308;2023-04-29T03:21:42;3.70;;;3.50;;
12556;SDS011;6344;49.932;8.308;2023-04-29T03:24:11;3.63;;;3.43;;
12556;SDS011;6344;49.932;8.308;2023-04-29T03:26:38;3.63;;;3.43;;
12556;SDS011;6344;49.932;8.308;2023-04-29T03:29:06;4.00;;;3.70;;
12556;SDS011;6344;49.932;8.308;2023-04-29T03:31:33;3.47;;;3.27;;
12556;SDS011;6344;49.932;8.308;2023-04-29T03:34:00;4.93;;;4.37;;
12556;SDS011;6344;49.932;8.308;2023-04-29T03:36:27;4.63;;;4.33;;
12556;SDS011;6344;49.932;8.308;2023-04-29T03:38:53;4.40;;;4.10;;
12556;SDS011;6344;49.932;8.308;2023-04-29T03:41:21;5.50;;;5.10;;
12556;SDS011;6344;49.932;8.308;2023-04-29T03:43:48;5.30;;;5.00;;
12556;SDS011;6344;49.932;8.308;2023-04-29T03:46:15;4.83;;;4.53;;
12556;SDS011;6344;49.932;8.308;2023-04-29T03:48:42;5.70;;;5.30;;
12556;SDS011;6344;49.932;8.308;2023-04-29T03:51:08;6.93;;;6.43;;
12556;SDS011;6344;49.932;8.308;2023-04-29T03:53:35;7.53;;;6.93;;
12556;SDS011;6344;49.932;8.308;2023-04-29T03:56:02;7.40;;;6.80;;
12556;SDS011;6344;49.932;8.308;2023-04-29T03:58:30;8.43;;;7.10;;
12556;SDS011;6344;49.932;8.308;2023-04-29T04:00:57;8.63;;;8.03;;
12556;SDS011;6344;49.932;8.308;2023-04-29T04:03:23;8.00;;;7.50;;
12556;SDS011;6344;49.932;8.308;2023-04-29T04:05:52;9.77;;;9.10;;
12556;SDS011;6344;49.932;8.308;2023-04-29T04:08:18;9.00;;;8.30;;
12556;SDS011;6344;49.932;8.308;2023-04-29T04:10:45;9.30;;;8.60;;
12556;SDS011;6344;49.932;8.308;2023-04-29T04:13:11;11.10;;;10.10;;
12556;SDS011;6344;49.932;8.308;2023-04-29T04:15:39;11.20;;;10.10;;
12556;SDS011;6344;49.932;8.308;2023-04-29T04:18:06;12.67;;;11.67;;
12556;SDS011;6344;49.932;8.308;2023-04-29T04:20:35;12.67;;;11.47;;
12556;SDS011;6344;49.932;8.308;2023-04-29T04:23:02;14.10;;;12.70;;
12556;SDS011;6344;49.932;8.308;2023-04-29T04:25:28;12.97;;;11.90;;
12556;SDS011;6344;49.932;8.308;2023-04-29T04:27:55;12.67;;;11.60;;
12556;SDS011;6344;49.932;8.308;2023-04-29T04:30:22;13.33;;;12.20;;
12556;SDS011;6344;49.932;8.308;2023-04-29T04:32:49;14.70;;;13.00;;
12556;SDS011;6344;49.932;8.308;2023-04-29T04:35:16;17.20;;;15.70;;
12556;SDS011;6344;49.932;8.308;2023-04-29T04:37:43;17.57;;;15.97;;
12556;SDS011;6344;49.932;8.308;2023-04-29T04:40:10;15.87;;;14.33;;
12556;SDS011;6344;49.932;8.308;2023-04-29T04:42:38;15.73;;;14.30;;
12556;SDS011;6344;49.932;8.308;2023-04-29T04:45:05;16.03;;;14.43;;
12556;SDS011;6344;49.932;8.308;2023-04-29T04:47:33;16.10;;;14.70;;
12556;SDS011;6344;49.932;8.308;2023-04-29T04:50:01;15.73;;;14.23;;
12556;SDS011;6344;49.932;8.308;2023-04-29T04:52:28;18.10;;;16.37;;
12556;SDS011;6344;49.932;8.308;2023-04-29T04:54:55;17.47;;;15.77;;
12556;SDS011;6344;49.932;8.308;2023-04-29T04:57:22;19.13;;;17.30;;
12556;SDS011;6344;49.932;8.308;2023-04-29T04:59:48;22.30;;;15.37;;
12556;SDS011;6344;49.932;8.308;2023-04-29T05:02:15;17.33;;;15.77;;
12556;SDS011;6344;49.932;8.308;2023-04-29T05:04:42;18.20;;;16.00;;
12556;SDS011;6344;49.932;8.308;2023-04-29T05:07:10;17.27;;;15.57;;
12556;SDS011;6344;49.932;8.308;2023-04-29T05:09:36;21.07;;;18.63;;
12556;SDS011;6344;49.932;8.308;2023-04-29T05:12:03;17.87;;;16.00;;
12556;SDS011;6344;49.932;8.308;2023-04-29T05:14:30;20.33;;;18.27;;
12556;SDS011;6344;49.932;8.308;2023-04-29T05:16:57;19.53;;;17.47;;
12556;SDS011;6344;49.932;8.308;2023-04-29T05:19:24;18.30;;;15.10;;
12556;SDS011;6344;49.932;8.308;2023-04-29T05:21:50;16.80;;;15.17;;
12556;SDS011;6344;49.932;8.308;2023-04-29T05:24:18;16.90;;;15.30;;
12556;SDS011;6344;49.932;8.308;2023-04-29T05:26:45;18.23;;;16.40;;
12556;SDS011;6344;49.932;8.308;2023-04-29T05:29:14;16.63;;;15.07;;
12556;SDS011;6344;49.932;8.308;2023-04-29T05:31:40;19.63;;;17.63;;
12556;SDS011;6344;49.932;8.308;2023-04-29T05:34:07;13.80;;;12.40;;
12556;SDS011;6344;49.932;8.308;2023-04-29T05:36:34;16.07;;;14.47;;
12556;SDS011;6344;49.932;8.308;2023-04-29T05:39:01;18.07;;;16.27;;
12556;SDS011;6344;49.932;8.308;2023-04-29T05:41:29;12.60;;;11.30;;
12556;SDS011;6344;49.932;8.308;2023-04-29T05:43:56;20.53;;;16.00;;
12556;SDS011;6344;49.932;8.308;2023-04-29T05:46:23;16.37;;;14.77;;
12556;SDS011;6344;49.932;8.308;2023-04-29T05:48:50;16.43;;;14.83;;
12556;SDS011;6344;49.932;8.308;2023-04-29T05:51:17;16.53;;;14.80;;
12556;SDS011;6344;49.932;8.308;2023-04-29T05:53:44;16.00;;;14.50;;
12556;SDS011;6344;49.932;8.308;2023-04-29T05:56:11;13.83;;;12.57;;
12556;SDS011;6344;49.932;8.308;2023-04-29T05:58:39;13.90;;;12.50;;
12556;SDS011;6344;49.932;8.308;2023-04-29T06:01:06;13.47;;;11.93;;
12556;SDS011;6344;49.932;8.308;2023-04-29T06:03:32;15.90;;;14.33;;
12556;SDS011;6344;49.932;8.308;2023-04-29T06:05:59;13.20;;;11.90;;
12556;SDS011;6344;49.932;8.308;2023-04-29T06:08:26;14.13;;;12.83;;
12556;SDS011;6344;49.932;8.308;2023-04-29T06:10:53;12.30;;;11.10;;
12556;SDS011;6344;49.932;8.308;2023-04-29T06:13:19;13.13;;;11.80;;
12556;SDS011;6344;49.932;8.308;2023-04-29T06:15:47;14.43;;;13.03;;
12556;SDS011;6344;49.932;8.308;2023-04-29T06:18:14;11.73;;;10.53;;
12556;SDS011;6344;49.932;8.308;2023-04-29T06:20:41;12.40;;;11.27;;
12556;SDS011;6344;49.932;8.308;2023-04-29T06:23:07;12.83;;;11.63;;
12556;SDS011;6344;49.932;8.308;2023-04-29T06:25:34;13.23;;;11.93;;
12556;SDS011;6344;49.932;8.308;2023-04-29T06:28:00;13.23;;;11.77;;
12556;SDS011;6344;49.932;8.308;2023-04-29T06:30:28;12.70;;;11.37;;
12556;SDS011;6344;49.932;8.308;2023-04-29T06:32:56;13.83;;;12.53;;
12556;SDS011;6344;49.932;8.308;2023-04-29T06:35:22;13.00;;;11.73;;
12556;SDS011;6344;49.932;8.308;2023-04-29T06:37:49;12.50;;;11.30;;
12556;SDS011;6344;49.932;8.308;2023-04-29T06:40:16;12.90;;;11.50;;
12556;SDS011;6344;49.932;8.308;2023-04-29T06:42:43;12.40;;;11.20;;
12556;SDS011;6344;49.932;8.308;2023-04-29T06:45:10;12.20;;;11.03;;
12556;SDS011;6344;49.932;8.308;2023-04-29T06:47:37;11.90;;;10.90;;
12556;SDS011;6344;49.932;8.308;2023-04-29T06:50:06;9.37;;;8.50;;
12556;SDS011;6344;49.932;8.308;2023-04-29T06:52:33;9.70;;;7.93;;
12556;SDS011;6344;49.932;8.308;2023-04-29T06:55:00;11.47;;;9.63;;
12556;SDS011;6344;49.932;8.308;2023-04-29T06:57:27;8.43;;;7.33;;
12556;SDS011;6344;49.932;8.308;2023-04-29T06:59:54;8.63;;;7.83;;
12556;SDS011;6344;49.932;8.308;2023-04-29T07:02:20;8.33;;;7.57;;
12556;SDS011;6344;49.932;8.308;2023-04-29T07:04:47;7.33;;;6.63;;
12556;SDS011;6344;49.932;8.308;2023-04-29T07:07:16;8.67;;;7.20;;
12556;SDS011;6344;49.932;8.308;2023-04-29T07:09:43;5.37;;;4.83;;
12556;SDS011;6344;49.932;8.308;2023-04-29T07:12:09;8.87;;;8.00;;
12556;SDS011;6344;49.932;8.308;2023-04-29T07:14:36;7.93;;;6.50;;
12556;SDS011;6344;49.932;8.308;2023-04-29T07:17:03;5.43;;;4.93;;
12556;SDS011;6344;49.932;8.308;2023-04-29T07:19:29;8.27;;;7.57;;
12556;SDS011;6344;49.932;8.308;2023-04-29T07:21:56;9.17;;;7.60;;
12556;SDS011;6344;49.932;8.308;2023-04-29T07:24:24;8.70;;;7.90;;
12556;SDS011;6344;49.932;8.308;2023-04-29T07:26:51;7.77;;;6.90;;
12556;SDS011;6344;49.932;8.308;2023-04-29T07:29:17;9.77;;;8.87;;
12556;SDS011;6344;49.932;8.308;2023-04-29T07:31:44;7.90;;;7.10;;
12556;SDS011;6344;49.932;8.308;2023-04-29T07:34:11;9.73;;;7.40;;
12556;SDS011;6344;49.932;8.308;2023-04-29T07:36:37;10.23;;;9.07;;
12556;SDS011;6344;49.932;8.308;2023-04-29T07:39:04;11.43;;;10.23;;
12556;SDS011;6344;49.932;8.308;2023-04-29T07:41:32;9.23;;;7.63;;
12556;SDS011;6344;49.932;8.308;2023-04-29T07:43:59;11.83;;;10.60;;
12556;SDS011;6344;49.932;8.308;2023-04-29T07:46:26;11.83;;;10.77;;
12556;SDS011;6344;49.932;8.308;2023-04-29T07:48:52;11.80;;;10.80;;
12556;SDS011;6344;49.932;8.308;2023-04-29T07:51:19;14.03;;;10.67;;
12556;SDS011;6344;49.932;8.308;2023-04-29T07:53:45;12.83;;;11.60;;
12556;SDS011;6344;49.932;8.308;2023-04-29T07:56:12;9.90;;;8.87;;
12556;SDS011;6344;49.932;8.308;2023-04-29T07:58:40;10.63;;;9.73;;
12556;SDS011;6344;49.932;8.308;2023-04-29T08:01:07;8.83;;;8.13;;
12556;SDS011;6344;49.932;8.308;2023-04-29T08:03:34;11.03;;;10.03;;
12556;SDS011;6344;49.932;8.308;2023-04-29T08:06:00;8.73;;;7.83;;
12556;SDS011;6344;49.932;8.308;2023-04-29T08:08:28;9.73;;;8.83;;
12556;SDS011;6344;49.932;8.308;2023-04-29T08:10:55;9.30;;;8.40;;
12556;SDS011;6344;49.932;8.308;2023-04-29T08:13:22;11.37;;;10.17;;
12556;SDS011;6344;49.932;8.308;2023-04-29T08:15:50;10.60;;;9.70;;
12556;SDS011;6344;49.932;8.308;2023-04-29T08:18:17;10.53;;;9.63;;
12556;SDS011;6344;49.932;8.308;2023-04-29T08:20:45;11.90;;;9.20;;
12556;SDS011;6344;49.932;8.308;2023-04-29T08:23:13;9.73;;;8.73;;
12556;SDS011;6344;49.932;8.308;2023-04-29T08:25:40;9.77;;;8.87;;
12556;SDS011;6344;49.932;8.308;2023-04-29T08:28:07;10.03;;;9.23;;
12556;SDS011;6344;49.932;8.308;2023-04-29T08:30:35;10.83;;;9.83;;
12556;SDS011;6344;49.932;8.308;2023-04-29T08:33:05;11.03;;;9.93;;
12556;SDS011;6344;49.932;8.308;2023-04-29T08:35:32;12.60;;;11.40;;
12556;SDS011;6344;49.932;8.308;2023-04-29T08:37:58;10.70;;;9.80;;
12556;SDS011;6344;49.932;8.308;2023-04-29T08:40:25;11.37;;;10.40;;
12556;SDS011;6344;49.932;8.308;2023-04-29T08:42:52;9.83;;;8.73;;
12556;SDS011;6344;49.932;8.308;2023-04-29T08:45:20;11.17;;;10.20;;
12556;SDS011;6344;49.932;8.308;2023-04-29T08:47:49;10.57;;;9.67;;
12556;SDS011;6344;49.932;8.308;2023-04-29T08:50:18;9.33;;;8.53;;
12556;SDS011;6344;49.932;8.308;2023-04-29T08:52:45;11.17;;;10.20;;
12556;SDS011;6344;49.932;8.308;2023-04-29T08:55:11;10.40;;;9.50;;
12556;SDS011;6344;49.932;8.308;2023-04-29T08:57:38;11.87;;;10.77;;
12556;SDS011;6344;49.932;8.308;2023-04-29T09:00:08;11.60;;;10.40;;
12556;SDS011;6344;49.932;8.308;2023-04-29T09:02:36;12.90;;;11.43;;
12556;SDS011;6344;49.932;8.308;2023-04-29T09:05:10;13.40;;;12.00;;
12556;SDS011;6344;49.932;8.308;2023-04-29T09:07:38;16.40;;;13.13;;
12556;SDS011;6344;49.932;8.308;2023-04-29T09:10:06;11.10;;;10.10;;
12556;SDS011;6344;49.932;8.308;2023-04-29T09:12:33;13.47;;;11.30;;
12556;SDS011;6344;49.932;8.308;2023-04-29T09:15:01;12.50;;;11.20;;
12556;SDS011;6344;49.932;8.308;2023-04-29T09:17:37;10.30;;;9.40;;
12556;SDS011;6344;49.932;8.308;2023-04-29T09:22:53;11.50;;;10.40;;
12556;SDS011;6344;49.932;8.308;2023-04-29T09:25:21;12.10;;;10.90;;
12556;SDS011;6344;49.932;8.308;2023-04-29T09:27:48;11.60;;;10.40;;
12556;SDS011;6344;49.932;8.308;2023-04-29T09:30:15;13.20;;;11.90;;
12556;SDS011;6344;49.932;8.308;2023-04-29T09:32:41;11.60;;;10.60;;
12556;SDS011;6344;49.932;8.308;2023-04-29T09:35:20;10.83;;;9.40;;
12556;SDS011;6344;49.932;8.308;2023-04-29T09:37:48;12.70;;;11.67;;
12556;SDS011;6344;49.932;8.308;2023-04-29T09:42:56;9.20;;;8.30;;
12556;SDS011;6344;49.932;8.308;2023-04-29T09:45:32;8.70;;;8.00;;
12556;SDS011;6344;49.932;8.308;2023-04-29T09:48:00;9.50;;;8.60;;
12556;SDS011;6344;49.932;8.308;2023-04-29T09:50:28;9.67;;;8.87;;
12556;SDS011;6344;49.932;8.308;2023-04-29T09:52:54;9.00;;;8.20;;
12556;SDS011;6344;49.932;8.308;2023-04-29T09:55:21;9.00;;;8.30;;
12556;SDS011;6344;49.932;8.308;2023-04-29T09:57:49;9.00;;;8.30;;
12556;SDS011;6344;49.932;8.308;2023-04-29T10:00:16;10.10;;;9.20;;
12556;SDS011;6344;49.932;8.308;2023-04-29T10:02:44;8.67;;;7.90;;
12556;SDS011;6344;49.932;8.308;2023-04-29T10:05:11;10.40;;;9.60;;
12556;SDS011;6344;49.932;8.308;2023-04-29T10:07:39;9.17;;;8.30;;
12556;SDS011;6344;49.932;8.308;2023-04-29T10:10:07;8.43;;;7.73;;
12556;SDS011;6344;49.932;8.308;2023-04-29T10:12:35;8.30;;;7.50;;
12556;SDS011;6344;49.932;8.308;2023-04-29T10:15:06;5.90;;;5.40;;
12556;SDS011;6344;49.932;8.308;2023-04-29T10:17:46;9.57;;;6.27;;
12556;SDS011;6344;49.932;8.308;2023-04-29T10:20:19;7.97;;;7.27;;
12556;SDS011;6344;49.932;8.308;2023-04-29T10:22:48;7.60;;;6.93;;
12556;SDS011;6344;49.932;8.308;2023-04-29T10:25:16;6.57;;;6.17;;
12556;SDS011;6344;49.932;8.308;2023-04-29T10:27:44;7.27;;;6.77;;
12556;SDS011;6344;49.932;8.308;2023-04-29T10:30:13;8.20;;;7.50;;
12556;SDS011;6344;49.932;8.308;2023-04-29T10:32:41;6.37;;;5.97;;
12556;SDS011;6344;49.932;8.308;2023-04-29T10:35:11;7.00;;;6.50;;
12556;SDS011;6344;49.932;8.308;2023-04-29T10:37:39;8.13;;;7.53;;
12556;SDS011;6344;49.932;8.308;2023-04-29T10:40:09;6.70;;;6.10;;
12556;SDS011;6344;49.932;8.308;2023-04-29T10:42:42;7.33;;;6.63;;
12556;SDS011;6344;49.932;8.308;2023-04-29T10:45:21;7.70;;;7.10;;
12556;SDS011;6344;49.932;8.308;2023-04-29T10:48:09;8.13;;;7.43;;
12556;SDS011;6344;49.932;8.308;2023-04-29T10:53:26;5.63;;;5.13;;
12556;SDS011;6344;49.932;8.308;2023-04-29T10:55:55;4.63;;;4.17;;
12556;SDS011;6344;49.932;8.308;2023-04-29T10:58:40;5.33;;;4.90;;
12556;SDS011;6344;49.932;8.308;2023-04-29T11:01:10;6.40;;;5.90;;
12556;SDS011;6344;49.932;8.308;2023-04-29T11:03:45;6.70;;;5.23;;
12556;SDS011;6344;49.932;8.308;2023-04-29T11:06:19;5.57;;;5.17;;
12556;SDS011;6344;49.932;8.308;2023-04-29T11:08:48;5.07;;;4.57;;
12556;SDS011;6344;49.932;8.308;2023-04-29T11:11:25;6.03;;;5.53;;
12556;SDS011;6344;49.932;8.308;2023-04-29T11:13:52;5.97;;;5.53;;
12556;SDS011;6344;49.932;8.308;2023-04-29T11:16:24;6.33;;;5.40;;
12556;SDS011;6344;49.932;8.308;2023-04-29T11:19:05;6.23;;;5.73;;
12556;SDS011;6344;49.932;8.308;2023-04-29T11:21:33;6.00;;;5.50;;
12556;SDS011;6344;49.932;8.308;2023-04-29T11:24:01;6.10;;;5.60;;
12556;SDS011;6344;49.932;8.308;2023-04-29T11:26:28;5.33;;;5.03;;
12556;SDS011;6344;49.932;8.308;2023-04-29T11:28:55;5.77;;;5.27;;
12556;SDS011;6344;49.932;8.308;2023-04-29T11:31:26;6.90;;;6.37;;
12556;SDS011;6344;49.932;8.308;2023-04-29T11:33:56;6.70;;;6.20;;
12556;SDS011;6344;49.932;8.308;2023-04-29T11:36:23;6.20;;;5.70;;
12556;SDS011;6344;49.932;8.308;2023-04-29T11:38:51;5.63;;;5.23;;
12556;SDS011;6344;49.932;8.308;2023-04-29T11:41:18;5.23;;;4.73;;
12556;SDS011;6344;49.932;8.308;2023-04-29T11:43:45;5.30;;;4.80;;
12556;SDS011;6344;49.932;8.308;2023-04-29T11:46:12;4.73;;;4.43;;
12556;SDS011;6344;49.932;8.308;2023-04-29T11:48:45;4.67;;;4.33;;
12556;SDS011;6344;49.932;8.308;2023-04-29T11:51:13;4.77;;;4.40;;
12556;SDS011;6344;49.932;8.308;2023-04-29T11:53:40;6.90;;;6.40;;
12556;SDS011;6344;49.932;8.308;2023-04-29T11:56:07;4.70;;;4.30;;
12556;SDS011;6344;49.932;8.308;2023-04-29T11:58:35;5.00;;;4.70;;
12556;SDS011;6344;49.932;8.308;2023-04-29T12:01:02;7.17;;;6.67;;
12556;SDS011;6344;49.932;8.308;2023-04-29T12:03:30;6.83;;;6.33;;
12556;SDS011;6344;49.932;8.308;2023-04-29T12:06:00;6.73;;;6.33;;
12556;SDS011;6344;49.932;8.308;2023-04-29T12:08:27;5.90;;;5.40;;
12556;SDS011;6344;49.932;8.308;2023-04-29T12:10:55;6.60;;;6.10;;
12556;SDS011;6344;49.932;8.308;2023-04-29T12:13:23;6.07;;;5.67;;
12556;SDS011;6344;49.932;8.308;2023-04-29T12:15:51;5.63;;;5.23;;
12556;SDS011;6344;49.932;8.308;2023-04-29T12:18:18;5.47;;;5.17;;
12556;SDS011;6344;49.932;8.308;2023-04-29T12:20:47;6.60;;;6.00;;
12556;SDS011;6344;49.932;8.308;2023-04-29T12:23:17;5.40;;;5.00;;
12556;SDS011;6344;49.932;8.308;2023-04-29T12:25:47;3.83;;;3.60;;
12556;SDS011;6344;49.932;8.308;2023-04-29T12:28:15;4.90;;;4.60;;
12556;SDS011;6344;49.932;8.308;2023-04-29T12:30:42;5.40;;;5.07;;
12556;SDS011;6344;49.932;8.308;2023-04-29T12:33:09;5.27;;;4.97;;
12556;SDS011;6344;49.932;8.308;2023-04-29T12:35:40;6.33;;;5.93;;
12556;SDS011;6344;49.932;8.308;2023-04-29T12:38:07;5.60;;;5.20;;
12556;SDS011;6344;49.932;8.308;2023-04-29T12:40:36;5.73;;;5.33;;
12556;SDS011;6344;49.932;8.308;2023-04-29T12:43:06;5.43;;;5.03;;
12556;SDS011;6344;49.932;8.308;2023-04-29T12:45:33;4.80;;;4.50;;
12556;SDS011;6344;49.932;8.308;2023-04-29T12:48:00;5.60;;;5.20;;
12556;SDS011;6344;49.932;8.308;2023-04-29T12:50:31;4.90;;;4.60;;
12556;SDS011;6344;49.932;8.308;2023-04-29T12:52:59;5.47;;;5.10;;
12556;SDS011;6344;49.932;8.308;2023-04-29T12:55:26;4.90;;;4.60;;
12556;SDS011;6344;49.932;8.308;2023-04-29T12:57:54;5.40;;;5.00;;
12556;SDS011;6344;49.932;8.308;2023-04-29T13:00:21;4.97;;;4.67;;
12556;SDS011;6344;49.932;8.308;2023-04-29T13:02:48;4.60;;;4.27;;
12556;SDS011;6344;49.932;8.308;2023-04-29T13:05:14;5.47;;;5.17;;
12556;SDS011;6344;49.932;8.308;2023-04-29T13:07:41;5.33;;;4.93;;
12556;SDS011;6344;49.932;8.308;2023-04-29T13:10:08;5.03;;;4.70;;
12556;SDS011;6344;49.932;8.308;2023-04-29T13:12:37;6.23;;;4.80;;
12556;SDS011;6344;49.932;8.308;2023-04-29T13:15:05;6.00;;;4.70;;
12556;SDS011;6344;49.932;8.308;2023-04-29T13:17:34;5.37;;;4.97;;
12556;SDS011;6344;49.932;8.308;2023-04-29T13:20:01;4.47;;;4.20;;
12556;SDS011;6344;49.932;8.308;2023-04-29T13:22:28;4.03;;;3.63;;
12556;SDS011;6344;49.932;8.308;2023-04-29T13:24:55;4.83;;;4.43;;
12556;SDS011;6344;49.932;8.308;2023-04-29T13:27:21;4.80;;;4.50;;
12556;SDS011;6344;49.932;8.308;2023-04-29T13:29:48;5.70;;;5.30;;
12556;SDS011;6344;49.932;8.308;2023-04-29T13:32:16;5.97;;;5.57;;
12556;SDS011;6344;49.932;8.308;2023-04-29T13:34:45;5.40;;;5.10;;
12556;SDS011;6344;49.932;8.308;2023-04-29T13:37:12;5.80;;;5.40;;
12556;SDS011;6344;49.932;8.308;2023-04-29T13:39:38;4.97;;;4.67;;
12556;SDS011;6344;49.932;8.308;2023-04-29T13:42:05;5.50;;;5.20;;
12556;SDS011;6344;49.932;8.308;2023-04-29T13:44:31;4.67;;;4.33;;
12556;SDS011;6344;49.932;8.308;2023-04-29T13:46:59;5.00;;;4.70;;
12556;SDS011;6344;49.932;8.308;2023-04-29T13:49:27;5.43;;;5.03;;
12556;SDS011;6344;49.932;8.308;2023-04-29T13:51:54;4.77;;;4.47;;
12556;SDS011;6344;49.932;8.308;2023-04-29T13:54:20;5.67;;;5.30;;
12556;SDS011;6344;49.932;8.308;2023-04-29T13:56:47;5.23;;;4.93;;
12556;SDS011;6344;49.932;8.308;2023-04-29T13:59:14;5.43;;;5.03;;
12556;SDS011;6344;49.932;8.308;2023-04-29T14:01:41;5.37;;;5.07;;
12556;SDS011;6344;49.932;8.308;2023-04-29T14:04:08;5.50;;;5.20;;
12556;SDS011;6344;49.932;8.308;2023-04-29T14:06:36;5.50;;;5.10;;
12556;SDS011;6344;49.932;8.308;2023-04-29T14:09:03;6.10;;;5.60;;
12556;SDS011;6344;49.932;8.308;2023-04-29T14:11:30;5.07;;;4.77;;
12556;SDS011;6344;49.932;8.308;2023-04-29T14:14:00;5.67;;;5.27;;
12556;SDS011;6344;49.932;8.308;2023-04-29T14:16:27;5.77;;;5.37;;
12556;SDS011;6344;49.932;8.308;2023-04-29T14:18:53;6.40;;;5.93;;
12556;SDS011;6344;49.932;8.308;2023-04-29T14:21:20;7.03;;;6.53;;
12556;SDS011;6344;49.932;8.308;2023-04-29T14:23:48;5.57;;;5.07;;
12556;SDS011;6344;49.932;8.308;2023-04-29T14:26:15;6.77;;;6.17;;
12556;SDS011;6344;49.932;8.308;2023-04-29T14:28:42;7.40;;;6.90;;
12556;SDS011;6344;49.932;8.308;2023-04-29T14:31:09;7.20;;;6.70;;
12556;SDS011;6344;49.932;8.308;2023-04-29T14:33:37;9.37;;;8.50;;
12556;SDS011;6344;49.932;8.308;2023-04-29T14:36:04;8.40;;;7.70;;
12556;SDS011;6344;49.932;8.308;2023-04-29T14:38:31;7.90;;;7.30;;
12556;SDS011;6344;49.932;8.308;2023-04-29T14:40:59;7.83;;;7.23;;
12556;SDS011;6344;49.932;8.308;2023-04-29T14:43:26;7.43;;;6.83;;
12556;SDS011;6344;49.932;8.308;2023-04-29T14:45:52;7.10;;;6.60;;
12556;SDS011;6344;49.932;8.308;2023-04-29T14:48:19;7.03;;;6.50;;
12556;SDS011;6344;49.932;8.308;2023-04-29T14:50:47;8.50;;;7.80;;
12556;SDS011;6344;49.932;8.308;2023-04-29T14:53:14;7.30;;;6.80;;
12556;SDS011;6344;49.932;8.308;2023-04-29T14:55:41;6.57;;;6.13;;
12556;SDS011;6344;49.932;8.308;2023-04-29T14:58:09;7.27;;;6.77;;
12556;SDS011;6344;49.932;8.308;2023-04-29T15:00:36;8.50;;;7.30;;
12556;SDS011;6344;49.932;8.308;2023-04-29T15:03:02;5.77;;;5.33;;
12556;SDS011;6344;49.932;8.308;2023-04-29T15:05:30;7.13;;;6.53;;